Terminal Aerodrome Forecast
Issued by NWS Northern Indiana

Home | Current Version | Previous Version | Graphics & Text | Print | Product List | Glossary On
Versions: 1 2 3 4 5 6 7 8 9 10 11 12 13 14 15
511
FTUS43 KIWX 152026 AAA
TAFFWA
TAF AMD
KFWA 152026Z 1520/1618 23009KT 3SM -SN BR OVC015
      TEMPO 1520/1524 1 1/2SM -SN BR BKN008
     FM160000 24010KT P6SM OVC015
     FM160600 25009KT P6SM OVC025=

USA.gov is the U.S. government's official web portal to all federal, state and local government web resources and services.